.
WxDataArchive / Data Records for 2014-12-02
2014-12-01 December 2014 2014-12-03

Data Records for Tuesday, 02 December 2014

Time	Temp	Chill	HIndex	Humid	Dewpt	 Wind 	HiWind	WindDir	Rain 	Barom
-----	----	-----	------	-----	-----	------	------	-------	-----	-----
00:00	22.2	22.2	22.2	66	12.6	2	6	90	0.00	30.579 
00:05	22.2	22.2	22.2	67	12.9	2	6	112	0.00	30.579 
00:10	22.2	22.2	22.2	67	12.9	1	5	90	0.00	30.579 
00:15	22.1	22.1	22.1	67	12.8	1	5	90	0.00	30.576 
00:20	22.1	22.1	22.1	67	12.8	1	6	90	0.00	30.576 
00:25	22.1	22.1	22.1	67	12.8	1	5	112	0.00	30.576 
00:30	21.9	21.9	21.9	66	12.3	2	6	90	0.00	30.568 
00:35	21.9	21.9	21.9	67	12.7	2	7	90	0.00	30.568 
00:40	21.9	21.9	21.9	66	12.3	3	11	90	0.00	30.568 
00:45	21.9	21.9	21.9	66	12.3	2	6	112	0.00	30.557 
00:50	21.9	21.9	21.9	66	12.3	3	7	90	0.00	30.557 
00:55	21.9	21.9	21.9	66	12.3	2	6	90	0.00	30.557 
01:00	21.9	21.9	21.9	66	12.3	3	7	90	0.00	30.552 
01:05	21.9	21.9	21.9	66	12.3	3	8	112	0.00	30.552 
01:10	21.9	21.9	21.9	66	12.3	2	7	90	0.00	30.552 
01:15	21.9	21.9	21.9	66	12.3	3	6	90	0.00	30.543 
01:20	21.8	21.8	21.8	66	12.2	3	10	90	0.00	30.543 
01:25	21.8	21.8	21.8	66	12.2	2	10	112	0.00	30.543 
01:30	21.6	21.6	21.6	66	12.0	1	6	112	0.00	30.546 
01:35	21.6	21.6	21.6	67	12.4	2	7	112	0.00	30.546 
01:40	21.6	21.6	21.6	67	12.4	2	8	112	0.00	30.546 
01:45	21.6	21.6	21.6	67	12.4	2	6	90	0.00	30.540 
01:50	21.4	21.4	21.4	68	12.5	2	6	90	0.00	30.540 
01:55	21.4	21.4	21.4	68	12.5	2	5	90	0.00	30.540 
02:00	21.4	21.4	21.4	68	12.5	1	5	90	0.00	30.539 
02:05	21.4	21.4	21.4	69	12.8	1	3	90	0.00	30.539 
02:10	21.4	21.4	21.4	69	12.8	0	3	90	0.00	30.539 
02:15	21.4	21.4	21.4	69	12.8	1	4	90	0.00	30.536 
02:20	21.3	21.3	21.3	70	13.1	1	6	90	0.00	30.536 
02:25	21.3	21.3	21.3	70	13.1	1	5	112	0.00	30.536 
02:30	21.3	21.3	21.3	71	13.4	1	4	112	0.00	30.529 
02:35	21.1	21.1	21.1	71	13.2	1	3	68	0.00	30.529 
02:40	21.1	21.1	21.1	72	13.5	1	5	68	0.00	30.529 
02:45	21.1	21.1	21.1	72	13.5	1	5	112	0.00	30.525 
02:50	21.0	21.0	21.0	72	13.4	2	5	90	0.00	30.525 
02:55	21.0	21.0	21.0	73	13.7	1	4	112	0.00	30.525 
03:00	21.0	21.0	21.0	73	13.7	1	4	112	0.00	30.535 
03:05	21.0	21.0	21.0	73	13.7	1	3	112	0.00	30.535 
03:10	21.0	21.0	21.0	73	13.7	1	4	112	0.00	30.535 
03:15	21.1	21.1	21.1	73	13.8	0	5	112	0.00	30.525 
03:20	21.1	21.1	21.1	74	14.1	0	2	112	0.00	30.525 
03:25	21.3	21.3	21.3	74	14.3	1	2	112	0.00	30.525 
03:30	21.4	21.4	21.4	74	14.4	1	3	68	0.00	30.515 
03:35	21.4	21.4	21.4	74	14.4	1	5	112	0.00	30.515 
03:40	21.4	21.4	21.4	74	14.4	1	3	112	0.00	30.515 
03:45	21.4	21.4	21.4	74	14.4	1	9	112	0.00	30.509 
03:50	21.4	21.4	21.4	75	14.7	1	7	135	0.00	30.509 
03:55	21.4	21.4	21.4	75	14.7	2	6	90	0.00	30.509 
04:00	21.4	21.4	21.4	75	14.7	1	4	112	0.00	30.501 
04:05	21.6	21.6	21.6	75	14.9	1	3	112	0.00	30.501 
04:10	21.6	21.6	21.6	76	15.2	2	5	90	0.00	30.501 
04:15	21.6	21.6	21.6	76	15.2	1	4	90	0.00	30.495 
04:20	21.6	21.6	21.6	76	15.2	0	3	90	0.00	30.495 
04:25	21.8	21.8	21.8	77	15.7	1	4	90	0.00	30.495 
04:30	21.8	21.8	21.8	77	15.7	1	4	90	0.00	30.486 
04:35	21.9	21.9	21.9	77	15.8	2	9	90	0.00	30.486 
04:40	21.9	21.9	21.9	77	15.8	1	4	90	0.00	30.486 
04:45	22.1	22.1	22.1	77	16.0	1	5	90	0.00	30.482 
04:50	22.1	22.1	22.1	77	16.0	1	4	90	0.00	30.482 
04:55	22.2	22.2	22.2	78	16.4	1	5	112	0.00	30.482 
05:00	22.2	22.2	22.2	77	16.1	2	6	112	0.00	30.476 
05:05	22.4	22.4	22.4	77	16.3	1	5	112	0.00	30.476 
05:10	22.4	22.4	22.4	78	16.6	1	4	90	0.00	30.476 
05:15	22.5	22.5	22.5	78	16.7	1	5	90	0.00	30.466 
05:20	22.5	22.5	22.5	78	16.7	1	5	90	0.00	30.466 
05:25	22.5	22.5	22.5	78	16.7	1	5	68	0.00	30.466 
05:30	22.5	22.5	22.5	78	16.7	1	5	68	0.00	30.463 
05:35	22.7	22.7	22.7	78	16.9	1	6	112	0.00	30.463 
05:40	22.7	22.7	22.7	78	16.9	1	5	90	0.00	30.463 
05:45	22.7	22.7	22.7	78	16.9	2	5	90	0.00	30.453 
05:50	22.7	22.7	22.7	79	17.2	1	5	90	0.00	30.453 
05:55	22.7	22.7	22.7	79	17.2	3	7	90	0.00	30.453 
06:00	22.7	22.7	22.7	79	17.2	1	5	90	0.00	30.450 
06:05	22.9	22.9	22.9	79	17.4	2	5	90	0.00	30.450 
06:10	22.9	22.9	22.9	79	17.4	1	5	90	0.00	30.450 
06:15	23.0	23.0	23.0	79	17.5	2	7	112	0.00	30.447 
06:20	23.0	23.0	23.0	79	17.5	1	5	112	0.00	30.447 
06:25	23.2	23.2	23.2	79	17.7	1	5	90	0.00	30.447 
06:30	23.3	23.3	23.3	80	18.1	1	5	90	0.00	30.444 
06:35	23.3	23.3	23.3	80	18.1	1	5	90	0.00	30.444 
06:40	23.5	23.5	23.5	80	18.3	1	5	90	0.00	30.444 
06:45	23.5	23.5	23.5	80	18.3	2	9	90	0.00	30.431 
06:50	23.5	23.5	23.5	80	18.3	2	4	90	0.00	30.431 
06:55	23.6	23.6	23.6	80	18.4	2	6	90	0.00	30.431 
07:00	23.6	23.6	23.6	81	18.6	1	6	112	0.00	30.427 
07:05	23.6	23.6	23.6	81	18.6	1	6	112	0.00	30.427 
07:10	23.6	23.6	23.6	81	18.6	2	6	90	0.00	30.427 
07:15	23.6	23.6	23.6	81	18.6	1	4	90	0.00	30.424 
07:20	23.6	23.6	23.6	81	18.6	1	4	90	0.00	30.424 
07:25	23.6	23.6	23.6	81	18.6	1	5	90	0.00	30.424 
07:30	23.5	23.5	23.5	81	18.5	2	5	90	0.00	30.420 
07:35	23.5	23.5	23.5	81	18.5	2	6	90	0.00	30.420 
07:40	23.5	23.5	23.5	81	18.5	2	5	90	0.00	30.420 
07:45	23.3	23.3	23.3	81	18.3	1	5	112	0.00	30.407 
07:50	23.3	23.3	23.3	81	18.3	1	5	90	0.00	30.407 
07:55	23.3	23.3	23.3	82	18.6	0	4	90	0.00	30.407 
08:00	23.3	23.3	23.3	82	18.6	1	3	90	0.00	30.406 
08:05	23.3	23.3	23.3	82	18.6	1	5	90	0.00	30.406 
08:10	23.5	23.5	23.5	82	18.8	1	4	90	0.00	30.406 
08:15	23.6	23.6	23.6	82	18.9	0	2	90	0.00	30.411 
08:20	23.6	23.6	23.6	82	18.9	1	4	90	0.00	30.411 
08:25	23.8	23.8	23.8	82	19.1	1	4	90	0.00	30.411 
08:30	23.9	23.9	23.9	82	19.2	1	3	90	0.00	30.401 
08:35	24.2	24.2	24.2	82	19.5	0	1	90	0.00	30.401 
08:40	24.4	24.4	24.4	82	19.7	1	3	90	0.00	30.401 
08:45	24.5	24.5	24.5	82	19.8	1	5	90	0.00	30.392 
08:50	24.7	24.7	24.7	82	20.0	2	5	90	0.00	30.392 
08:55	24.8	24.8	24.8	82	20.1	1	4	90	0.00	30.392 
09:00	25.0	25.0	25.0	82	20.3	1	5	90	0.00	30.383 
09:05	25.1	25.1	25.1	82	20.4	2	5	90	0.00	30.383 
09:10	25.3	25.3	25.3	81	20.3	1	4	90	0.00	30.383 
09:15	25.6	25.6	25.6	81	20.6	1	6	90	0.00	30.386 
09:20	25.7	25.7	25.7	81	20.7	2	4	90	0.00	30.386 
09:25	25.8	25.8	25.8	81	20.8	2	5	90	0.00	30.386 
09:30	26.1	26.1	26.1	81	21.1	2	5	68	0.00	30.376 
09:35	26.3	26.3	26.3	81	21.3	2	5	112	0.00	30.376 
09:40	26.4	26.4	26.4	81	21.4	3	5	90	0.00	30.376 
09:45	26.6	26.6	26.6	80	21.3	3	7	112	0.00	30.367 
09:50	26.7	26.7	26.7	80	21.4	2	7	90	0.00	30.367 
09:55	26.9	26.9	26.9	81	21.9	2	5	90	0.00	30.367 
10:00	27.0	27.0	27.0	80	21.7	2	5	90	0.00	30.361 
10:05	27.2	27.2	27.2	79	21.6	3	9	90	0.00	30.361 
10:10	27.3	22.6	27.3	77	21.1	4	9	112	0.00	30.361 
10:15	27.5	27.5	27.5	77	21.3	3	6	90	0.00	30.353 
10:20	27.5	27.5	27.5	77	21.3	3	7	112	0.00	30.353 
10:25	27.6	27.6	27.6	77	21.4	2	6	90	0.00	30.353 
10:30	27.6	27.6	27.6	77	21.4	3	9	68	0.00	30.348 
10:35	27.6	23.0	27.6	77	21.4	4	10	90	0.00	30.348 
10:40	27.6	27.6	27.6	78	21.7	2	6	90	0.00	30.348 
10:45	27.6	27.6	27.6	80	22.3	2	5	112	0.00	30.342 
10:50	27.6	27.6	27.6	81	22.5	2	5	68	0.00	30.342 
10:55	27.6	27.6	27.6	81	22.5	1	4	90	0.00	30.342 
11:00	27.6	27.6	27.6	80	22.3	3	6	90	0.00	30.335 
11:05	27.6	27.6	27.6	81	22.5	2	5	90	0.00	30.335 
11:10	27.8	27.8	27.8	81	22.7	2	5	112	0.00	30.335 
11:15	27.8	27.8	27.8	81	22.7	2	5	112	0.00	30.318 
11:20	27.9	23.3	27.9	80	22.5	4	10	90	0.00	30.318 
11:25	27.9	27.9	27.9	80	22.5	3	6	112	0.00	30.318 
11:30	28.2	28.2	28.2	79	22.5	3	6	90	0.00	30.303 
11:35	28.5	28.5	28.5	79	22.8	2	5	90	0.00	30.303 
11:40	28.4	23.9	28.4	77	22.1	4	9	112	0.00	30.303 
11:45	28.5	28.5	28.5	77	22.2	2	5	112	0.00	30.296 
11:50	28.5	28.5	28.5	77	22.2	2	5	112	0.00	30.296 
11:55	28.5	28.5	28.5	76	21.9	3	6	90	0.00	30.296 
12:00	28.5	28.5	28.5	76	21.9	3	7	90	0.00	30.291 
12:05	28.5	28.5	28.5	76	21.9	2	5	90	0.00	30.291 
12:10	28.5	28.5	28.5	76	21.9	2	5	90	0.00	30.291 
12:15	28.5	28.5	28.5	76	21.9	2	4	112	0.00	30.287 
12:20	28.5	28.5	28.5	76	21.9	2	5	90	0.00	30.287 
12:25	28.5	28.5	28.5	76	21.9	2	5	90	0.00	30.287 
12:30	28.5	28.5	28.5	77	22.2	1	4	90	0.00	30.274 
12:35	28.7	28.7	28.7	76	22.1	2	6	90	0.00	30.274 
12:40	28.7	28.7	28.7	76	22.1	2	6	90	0.00	30.274 
12:45	29.0	29.0	29.0	77	22.7	1	5	90	0.00	30.261 
12:50	29.0	29.0	29.0	76	22.4	2	6	90	0.00	30.261 
12:55	29.1	29.1	29.1	77	22.8	1	2	90	0.00	30.261 
13:00	29.1	29.1	29.1	76	22.5	1	4	90	0.00	30.256 
13:05	29.3	29.3	29.3	77	23.0	1	4	90	0.00	30.256 
13:10	29.1	29.1	29.1	77	22.8	1	4	90	0.00	30.256 
13:15	29.1	29.1	29.1	77	22.8	1	4	90	0.00	30.245 
13:20	29.1	29.1	29.1	77	22.8	1	4	90	0.00	30.245 
13:25	29.3	29.3	29.3	77	23.0	1	4	90	0.00	30.245 
13:30	29.4	29.4	29.4	77	23.1	0	2	90	0.00	30.242 
13:35	29.5	29.5	29.5	77	23.2	0	3	90	0.00	30.242 
13:40	29.7	29.7	29.7	77	23.4	1	4	90	0.00	30.242 
13:45	29.8	29.8	29.8	77	23.5	0	2	90	0.00	30.228 
13:50	29.8	29.8	29.8	77	23.5	0	3	90	0.00	30.228 
13:55	29.8	29.8	29.8	76	23.2	1	4	90	0.00	30.228 
14:00	29.7	29.7	29.7	76	23.1	1	3	112	0.00	30.224 
14:05	29.8	29.8	29.8	77	23.5	1	4	112	0.00	30.224 
14:10	29.7	29.7	29.7	77	23.4	1	5	68	0.00	30.224 
14:15	29.8	29.8	29.8	77	23.5	1	3	112	0.00	30.209 
14:20	30.0	30.0	30.0	77	23.7	0	2	90	0.00	30.209 
14:25	30.0	30.0	30.0	77	23.7	0	2	90	0.00	30.209 
14:30	30.1	30.1	30.1	77	23.8	0	2	90	0.00	30.206 
14:35	30.3	30.3	30.3	77	24.0	0	2	90	0.00	30.206 
14:40	30.4	30.4	30.4	77	24.1	0	2	90	0.00	30.206 
14:45	30.4	30.4	30.4	76	23.8	0	3	90	0.00	30.195 
14:50	30.3	30.3	30.3	77	24.0	0	4	90	0.00	30.195 
14:55	30.3	30.3	30.3	77	24.0	0	3	90	0.00	30.195 
15:00	30.4	30.4	30.4	77	24.1	0	1	90	0.00	30.192 
15:05	30.6	30.6	30.6	77	24.3	0	2	90	0.00	30.192 
15:10	30.6	30.6	30.6	77	24.3	0	1	90	0.00	30.192 
15:15	30.7	30.7	30.7	77	24.4	0	1	90	0.00	30.183 
15:20	30.9	30.9	30.9	77	24.6	0	1	90	0.00	30.183 
15:25	30.9	30.9	30.9	77	24.6	0	1	90	0.00	30.183 
15:30	30.9	30.9	30.9	77	24.6	0	1	90	0.00	30.179 
15:35	30.9	30.9	30.9	77	24.6	0	2	90	0.00	30.179 
15:40	30.7	30.7	30.7	77	24.4	0	2	90	0.00	30.179 
15:45	30.7	30.7	30.7	77	24.4	0	1	90	0.00	30.177 
15:50	30.7	30.7	30.7	77	24.4	0	1	90	0.00	30.177 
15:55	30.7	30.7	30.7	78	24.7	0	1	90	0.00	30.177 
16:00	30.7	30.7	30.7	78	24.7	0	1	90	0.00	30.167 
16:05	30.7	30.7	30.7	78	24.7	0	2	90	0.00	30.167 
16:10	30.7	30.7	30.7	78	24.7	0	1	90	0.00	30.167 
16:15	30.7	30.7	30.7	78	24.7	0	2	90	0.00	30.167 
16:20	30.7	30.7	30.7	79	25.0	0	1	90	0.00	30.167 
16:25	30.6	30.6	30.6	79	24.9	0	2	90	0.00	30.167 
16:30	30.6	30.6	30.6	79	24.9	0	3	90	0.00	30.163 
16:35	30.6	30.6	30.6	79	24.9	0	2	90	0.00	30.163 
16:40	30.6	30.6	30.6	79	24.9	0	2	90	0.00	30.163 
16:45	30.6	30.6	30.6	80	25.2	0	2	90	0.00	30.164 
16:50	30.6	30.6	30.6	80	25.2	0	2	90	0.00	30.164 
16:55	30.6	30.6	30.6	80	25.2	0	1	90	0.00	30.164 
17:00	30.6	30.6	30.6	80	25.2	0	1	90	0.00	30.168 
17:05	30.4	30.4	30.4	81	25.3	0	2	90	0.00	30.168 
17:10	30.4	30.4	30.4	81	25.3	0	0	---	0.00	30.168 
17:15	30.4	30.4	30.4	81	25.3	0	0	---	0.00	30.163 
17:20	30.4	30.4	30.4	81	25.3	0	1	90	0.00	30.163 
17:25	30.4	30.4	30.4	82	25.6	0	0	---	0.00	30.163 
17:30	30.4	30.4	30.4	82	25.6	0	1	90	0.00	30.163 
17:35	30.3	30.3	30.3	82	25.5	0	1	90	0.00	30.163 
17:40	30.3	30.3	30.3	82	25.5	0	2	90	0.00	30.163 
17:45	30.3	30.3	30.3	83	25.8	0	0	---	0.00	30.160 
17:50	30.3	30.3	30.3	83	25.8	0	2	90	0.00	30.160 
17:55	30.3	30.3	30.3	83	25.8	0	1	90	0.00	30.160 
18:00	30.3	30.3	30.3	83	25.8	0	0	---	0.00	30.160 
18:05	30.3	30.3	30.3	83	25.8	0	0	---	0.00	30.160 
18:10	30.3	30.3	30.3	83	25.8	0	1	90	0.00	30.160 
18:15	30.3	30.3	30.3	83	25.8	0	2	90	0.00	30.149 
18:20	30.3	30.3	30.3	84	26.1	0	1	90	0.00	30.149 
18:25	30.3	30.3	30.3	84	26.1	0	1	90	0.00	30.149 
18:30	30.3	30.3	30.3	84	26.1	0	1	90	0.00	30.143 
18:35	30.3	30.3	30.3	84	26.1	0	2	90	0.00	30.143 
18:40	30.3	30.3	30.3	84	26.1	0	2	90	0.00	30.143 
18:45	30.3	30.3	30.3	85	26.3	0	2	90	0.00	30.138 
18:50	30.3	30.3	30.3	85	26.3	0	1	90	0.00	30.138 
18:55	30.3	30.3	30.3	85	26.3	0	2	90	0.00	30.138 
19:00	30.3	30.3	30.3	85	26.3	0	1	90	0.00	30.136 
19:05	30.3	30.3	30.3	86	26.6	0	2	90	0.00	30.136 
19:10	30.3	30.3	30.3	86	26.6	0	1	90	0.00	30.136 
19:15	30.3	30.3	30.3	86	26.6	0	1	90	0.00	30.137 
19:20	30.4	30.4	30.4	86	26.7	0	0	---	0.00	30.137 
19:25	30.4	30.4	30.4	86	26.7	0	0	---	0.00	30.137 
19:30	30.4	30.4	30.4	86	26.7	0	0	---	0.00	30.128 
19:35	30.4	30.4	30.4	87	27.0	0	1	90	0.00	30.128 
19:40	30.4	30.4	30.4	87	27.0	0	1	90	0.00	30.128 
19:45	30.4	30.4	30.4	87	27.0	0	0	---	0.00	30.130 
19:50	30.4	30.4	30.4	87	27.0	0	0	---	0.00	30.130 
19:55	30.6	30.6	30.6	87	27.2	0	0	---	0.00	30.130 
20:00	30.6	30.6	30.6	87	27.2	0	0	---	0.00	30.130 
20:05	30.6	30.6	30.6	87	27.2	0	0	---	0.00	30.130 
20:10	30.6	30.6	30.6	87	27.2	0	1	90	0.00	30.130 
20:15	30.6	30.6	30.6	87	27.2	0	1	90	0.00	30.127 
20:20	30.7	30.7	30.7	87	27.3	0	1	90	0.00	30.127 
20:25	30.7	30.7	30.7	88	27.6	0	2	90	0.00	30.127 
20:30	30.9	30.9	30.9	88	27.8	0	1	90	0.00	30.130 
20:35	30.9	30.9	30.9	88	27.8	0	1	90	0.00	30.130 
20:40	30.9	30.9	30.9	88	27.8	0	2	90	0.00	30.130 
20:45	31.0	31.0	31.0	88	27.9	0	2	90	0.00	30.130 
20:50	31.0	31.0	31.0	88	27.9	0	1	90	0.00	30.130 
20:55	31.0	31.0	31.0	88	27.9	0	1	90	0.00	30.130 
21:00	31.0	31.0	31.0	89	28.1	0	1	90	0.00	30.133 
21:05	31.2	31.2	31.2	89	28.3	0	1	90	0.00	30.133 
21:10	31.2	31.2	31.2	89	28.3	0	1	90	0.00	30.133 
21:15	31.2	31.2	31.2	89	28.3	0	1	90	0.00	30.122 
21:20	31.2	31.2	31.2	89	28.3	0	2	90	0.00	30.122 
21:25	31.2	31.2	31.2	89	28.3	0	1	90	0.00	30.122 
21:30	31.2	31.2	31.2	90	28.6	0	2	90	0.00	30.121 
21:35	31.3	31.3	31.3	90	28.7	0	3	90	0.00	30.121 
21:40	31.3	31.3	31.3	90	28.7	0	2	90	0.00	30.121 
21:45	31.3	31.3	31.3	90	28.7	0	3	90	0.00	30.118 
21:50	31.3	31.3	31.3	90	28.7	0	2	90	0.00	30.118 
21:55	31.5	31.5	31.5	90	28.9	0	2	90	0.00	30.118 
22:00	31.5	31.5	31.5	91	29.2	0	3	90	0.00	30.119 
22:05	31.6	31.6	31.6	91	29.3	0	2	90	0.00	30.119 
22:10	31.6	31.6	31.6	91	29.3	0	2	90	0.00	30.119 
22:15	31.6	31.6	31.6	91	29.3	0	1	90	0.00	30.109 
22:20	31.8	31.8	31.8	91	29.5	0	2	90	0.00	30.109 
22:25	31.8	31.8	31.8	91	29.5	0	2	90	0.00	30.109 
22:30	31.8	31.8	31.8	91	29.5	0	2	90	0.00	30.113 
22:35	31.9	31.9	31.9	91	29.6	0	2	90	0.00	30.113 
22:40	31.9	31.9	31.9	91	29.6	0	2	90	0.00	30.113 
22:45	31.9	31.9	31.9	91	29.6	0	3	90	0.00	30.108 
22:50	32.1	32.1	32.1	91	29.8	0	2	90	0.00	30.108 
22:55	32.1	32.1	32.1	91	29.8	1	3	90	0.00	30.108 
23:00	32.1	32.1	32.1	91	29.8	0	2	90	0.00	30.108 
23:05	32.1	32.1	32.1	91	29.8	0	3	90	0.00	30.108 
23:10	32.2	32.2	32.2	91	29.9	1	4	90	0.00	30.108 
23:15	32.2	32.2	32.2	91	29.9	0	4	90	0.00	30.108 
23:20	32.2	32.2	32.2	91	29.9	1	3	90	0.00	30.108 
23:25	32.2	32.2	32.2	91	29.9	0	2	90	0.00	30.108 
23:30	32.4	32.4	32.4	91	30.1	1	4	90	0.00	30.109 
23:35	32.4	32.4	32.4	91	30.1	0	2	90	0.00	30.109 
23:40	32.4	32.4	32.4	91	30.1	1	3	90	0.00	30.109 
23:45	32.4	32.4	32.4	91	30.1	1	4	90	0.00	30.105 
23:50	32.4	32.4	32.4	91	30.1	0	4	90	0.00	30.105 
23:55	32.4	32.4	32.4	91	30.1	1	2	90	0.00	30.105 

CoCoRaHS
IN-AL-39
A2 Web Hosting
Creative Commons License
GoDaddy
search engine by freefind advanced

loaded 2018-11-16 11:38:37 • last modified 2010-11-18 10:43:29
Privacy PolicyDisclaimer
• wx.awcolley.com is powered by PmWiki v.2002016 •
• all content (unless otherwise noted) © 2018 A W Colley